Aeroporto :
LOGIN :

Iscrizione | Disclaimer

   EN    FR    IT 

 










Sommario :    VFR   VFR Marginale   IFR   IFR Intensivo   IFR Molto Intensivo
Visibilità : 
Base nubi : 
>= 8 km
>= 3000ft
5 / 8 km
1000 / 3000 ft
1500m / 5 km
500 / 1000 ft
800 / 1500m
200 / 500 ft
< 800m
< 200 ft
Simboli :   Temporali  Nebbia  Neve Forte  Precipitazioni Forti  Vento > 20 kt
SIGMETs :   Varie  Temporali  Ghiacco  Turbolenza  Onda orograficha  Ceneri Vulcaniche






- Altitudine del aeroporto : 327 ft
- Codice IATA : BHX


EGBB - Birmingham

ULTIMO METAR :
  • 200620Z VRB02KT CAVOK 12/09 Q1019

METARs OBSOLETI :
  • 200550Z 24004KT 200V290 9999 SCT032 12/08 Q1018
  • 200520Z 16003KT 9999 FEW036 12/08 Q1018
  • 200450Z 23003KT 190V260 9999 FEW041 12/08 Q1018
  • 200420Z 22003KT 9999 FEW037 11/09 Q1018
  • 200350Z 20002KT CAVOK 11/09 Q1018

TAF TAF EGBB
Valido dal 20 a 06 ore il 21 a 06 ore UTC


200454Z 2006/2106 22006KT 9999 FEW012 SCT045
PROB30
TEMPO 2006/2009 8000 -RA BKN012
TEMPO 2010/2020 7000 SHRA
PROB40
TEMPO 2012/2019 22015G25KT 4000 +SHRA BKN012
ATIS : +44 121 780 0910



MetMap, La meteo Aeronautica in un colpo d'occhio ! - Copyright ORBIFLY Dicembre 2007 - Disclaimer

ORBIFLY MET'MAP TEAM :

Programmazione e sviluppo : Alexandra Zaïnal
Concezione : Baudouin d'Aumeries
Supporto tecnico e logistico : Manuel Goepfert
Aiuto : Marc-Olivier Méhu
Aiuto per la traduzione : Arnaldo La Scala

Contatto : metmap@orbifly.com




FONTI E CREDITI :

   NOAA